sensor_id;sensor_type;location;lat;lon;timestamp;P1;durP1;ratioP1;P2;durP2;ratioP2
19551;SDS011;9921;47.186;9.778;2023-04-29T00:01:18;0.00;;;0.00;;
19551;SDS011;9921;47.186;9.778;2023-04-29T00:03:45;0.00;;;0.00;;
19551;SDS011;9921;47.186;9.778;2023-04-29T00:06:13;0.00;;;0.00;;
19551;SDS011;9921;47.186;9.778;2023-04-29T00:08:40;0.00;;;0.00;;
19551;SDS011;9921;47.186;9.778;2023-04-29T00:11:07;0.00;;;0.00;;
19551;SDS011;9921;47.186;9.778;2023-04-29T00:13:35;0.00;;;0.00;;
19551;SDS011;9921;47.186;9.778;2023-04-29T00:16:04;0.00;;;0.00;;
19551;SDS011;9921;47.186;9.778;2023-04-29T00:18:32;0.00;;;0.00;;
19551;SDS011;9921;47.186;9.778;2023-04-29T00:21:00;0.00;;;0.00;;
19551;SDS011;9921;47.186;9.778;2023-04-29T00:23:29;0.00;;;0.00;;
19551;SDS011;9921;47.186;9.778;2023-04-29T00:25:56;0.00;;;0.00;;
19551;SDS011;9921;47.186;9.778;2023-04-29T00:28:23;0.00;;;0.00;;
19551;SDS011;9921;47.186;9.778;2023-04-29T00:30:50;0.00;;;0.00;;
19551;SDS011;9921;47.186;9.778;2023-04-29T00:33:19;0.00;;;0.00;;
19551;SDS011;9921;47.186;9.778;2023-04-29T00:35:45;0.00;;;0.00;;
19551;SDS011;9921;47.186;9.778;2023-04-29T00:38:12;0.00;;;0.00;;
19551;SDS011;9921;47.186;9.778;2023-04-29T00:40:39;0.00;;;0.00;;
19551;SDS011;9921;47.186;9.778;2023-04-29T00:43:07;0.00;;;0.00;;
19551;SDS011;9921;47.186;9.778;2023-04-29T00:45:34;0.00;;;0.00;;
19551;SDS011;9921;47.186;9.778;2023-04-29T00:48:01;0.00;;;0.00;;
19551;SDS011;9921;47.186;9.778;2023-04-29T00:50:29;0.00;;;0.00;;
19551;SDS011;9921;47.186;9.778;2023-04-29T00:52:56;0.00;;;0.00;;
19551;SDS011;9921;47.186;9.778;2023-04-29T00:55:23;0.00;;;0.00;;
19551;SDS011;9921;47.186;9.778;2023-04-29T00:57:51;0.00;;;0.00;;
19551;SDS011;9921;47.186;9.778;2023-04-29T01:00:18;0.00;;;0.00;;
19551;SDS011;9921;47.186;9.778;2023-04-29T01:02:45;0.00;;;0.00;;
19551;SDS011;9921;47.186;9.778;2023-04-29T01:05:13;0.00;;;0.00;;
19551;SDS011;9921;47.186;9.778;2023-04-29T01:07:44;0.00;;;0.00;;
19551;SDS011;9921;47.186;9.778;2023-04-29T01:10:18;0.00;;;0.00;;
19551;SDS011;9921;47.186;9.778;2023-04-29T01:12:53;0.00;;;0.00;;
19551;SDS011;9921;47.186;9.778;2023-04-29T01:15:28;0.00;;;0.00;;
19551;SDS011;9921;47.186;9.778;2023-04-29T01:17:59;0.00;;;0.00;;
19551;SDS011;9921;47.186;9.778;2023-04-29T01:20:30;0.00;;;0.00;;
19551;SDS011;9921;47.186;9.778;2023-04-29T01:22:59;0.00;;;0.00;;
19551;SDS011;9921;47.186;9.778;2023-04-29T01:25:27;0.00;;;0.00;;
19551;SDS011;9921;47.186;9.778;2023-04-29T01:27:56;0.00;;;0.00;;
19551;SDS011;9921;47.186;9.778;2023-04-29T01:30:31;0.00;;;0.00;;
19551;SDS011;9921;47.186;9.778;2023-04-29T01:33:12;0.00;;;0.00;;
19551;SDS011;9921;47.186;9.778;2023-04-29T01:35:49;0.00;;;0.00;;
19551;SDS011;9921;47.186;9.778;2023-04-29T01:38:25;0.00;;;0.00;;
19551;SDS011;9921;47.186;9.778;2023-04-29T01:41:02;0.00;;;0.00;;
19551;SDS011;9921;47.186;9.778;2023-04-29T01:43:36;0.00;;;0.00;;
19551;SDS011;9921;47.186;9.778;2023-04-29T01:46:03;0.00;;;0.00;;
19551;SDS011;9921;47.186;9.778;2023-04-29T01:48:31;0.00;;;0.00;;
19551;SDS011;9921;47.186;9.778;2023-04-29T01:50:58;0.00;;;0.00;;
19551;SDS011;9921;47.186;9.778;2023-04-29T01:53:25;0.00;;;0.00;;
19551;SDS011;9921;47.186;9.778;2023-04-29T01:55:52;0.00;;;0.00;;
19551;SDS011;9921;47.186;9.778;2023-04-29T01:58:20;0.00;;;0.00;;
19551;SDS011;9921;47.186;9.778;2023-04-29T02:00:47;0.00;;;0.00;;
19551;SDS011;9921;47.186;9.778;2023-04-29T02:03:14;0.00;;;0.00;;
19551;SDS011;9921;47.186;9.778;2023-04-29T02:05:41;0.00;;;0.00;;
19551;SDS011;9921;47.186;9.778;2023-04-29T02:08:08;0.00;;;0.00;;
19551;SDS011;9921;47.186;9.778;2023-04-29T02:10:35;0.00;;;0.00;;
19551;SDS011;9921;47.186;9.778;2023-04-29T02:13:02;0.00;;;0.00;;
19551;SDS011;9921;47.186;9.778;2023-04-29T02:15:30;0.00;;;0.00;;
19551;SDS011;9921;47.186;9.778;2023-04-29T02:17:57;0.00;;;0.00;;
19551;SDS011;9921;47.186;9.778;2023-04-29T02:20:24;0.00;;;0.00;;
19551;SDS011;9921;47.186;9.778;2023-04-29T02:22:51;0.00;;;0.00;;
19551;SDS011;9921;47.186;9.778;2023-04-29T02:25:17;0.00;;;0.00;;
19551;SDS011;9921;47.186;9.778;2023-04-29T02:27:44;0.00;;;0.00;;
19551;SDS011;9921;47.186;9.778;2023-04-29T02:30:11;0.00;;;0.00;;
19551;SDS011;9921;47.186;9.778;2023-04-29T02:32:39;0.00;;;0.00;;
19551;SDS011;9921;47.186;9.778;2023-04-29T02:35:06;0.00;;;0.00;;
19551;SDS011;9921;47.186;9.778;2023-04-29T02:37:34;0.00;;;0.00;;
19551;SDS011;9921;47.186;9.778;2023-04-29T02:40:01;0.00;;;0.00;;
19551;SDS011;9921;47.186;9.778;2023-04-29T02:42:29;0.00;;;0.00;;
19551;SDS011;9921;47.186;9.778;2023-04-29T02:44:55;0.00;;;0.00;;
19551;SDS011;9921;47.186;9.778;2023-04-29T02:47:22;0.00;;;0.00;;
19551;SDS011;9921;47.186;9.778;2023-04-29T02:49:50;0.00;;;0.00;;
19551;SDS011;9921;47.186;9.778;2023-04-29T02:52:17;0.00;;;0.00;;
19551;SDS011;9921;47.186;9.778;2023-04-29T02:54:44;0.00;;;0.00;;
19551;SDS011;9921;47.186;9.778;2023-04-29T02:57:11;0.00;;;0.00;;
19551;SDS011;9921;47.186;9.778;2023-04-29T02:59:38;0.00;;;0.00;;
19551;SDS011;9921;47.186;9.778;2023-04-29T03:02:05;0.00;;;0.00;;
19551;SDS011;9921;47.186;9.778;2023-04-29T03:04:31;0.00;;;0.00;;
19551;SDS011;9921;47.186;9.778;2023-04-29T03:07:00;0.00;;;0.00;;
19551;SDS011;9921;47.186;9.778;2023-04-29T03:09:27;0.00;;;0.00;;
19551;SDS011;9921;47.186;9.778;2023-04-29T03:11:54;0.00;;;0.00;;
19551;SDS011;9921;47.186;9.778;2023-04-29T03:14:21;0.00;;;0.00;;
19551;SDS011;9921;47.186;9.778;2023-04-29T03:16:48;0.00;;;0.00;;
19551;SDS011;9921;47.186;9.778;2023-04-29T03:19:15;0.00;;;0.00;;
19551;SDS011;9921;47.186;9.778;2023-04-29T03:21:42;0.00;;;0.00;;
19551;SDS011;9921;47.186;9.778;2023-04-29T03:24:10;0.00;;;0.00;;
19551;SDS011;9921;47.186;9.778;2023-04-29T03:26:37;0.00;;;0.00;;
19551;SDS011;9921;47.186;9.778;2023-04-29T03:29:04;0.00;;;0.00;;
19551;SDS011;9921;47.186;9.778;2023-04-29T03:31:31;0.00;;;0.00;;
19551;SDS011;9921;47.186;9.778;2023-04-29T03:33:58;0.00;;;0.00;;
19551;SDS011;9921;47.186;9.778;2023-04-29T03:36:25;0.00;;;0.00;;
19551;SDS011;9921;47.186;9.778;2023-04-29T03:38:51;0.00;;;0.00;;
19551;SDS011;9921;47.186;9.778;2023-04-29T03:41:20;0.00;;;0.00;;
19551;SDS011;9921;47.186;9.778;2023-04-29T03:43:48;0.00;;;0.00;;
19551;SDS011;9921;47.186;9.778;2023-04-29T03:46:15;0.00;;;0.00;;
19551;SDS011;9921;47.186;9.778;2023-04-29T03:48:42;0.00;;;0.00;;
19551;SDS011;9921;47.186;9.778;2023-04-29T03:51:09;0.00;;;0.00;;
19551;SDS011;9921;47.186;9.778;2023-04-29T03:53:37;0.00;;;0.00;;
19551;SDS011;9921;47.186;9.778;2023-04-29T03:56:04;0.00;;;0.00;;
19551;SDS011;9921;47.186;9.778;2023-04-29T04:01:00;0.00;;;0.00;;
19551;SDS011;9921;47.186;9.778;2023-04-29T04:03:27;0.00;;;0.00;;
19551;SDS011;9921;47.186;9.778;2023-04-29T04:05:54;0.00;;;0.00;;
19551;SDS011;9921;47.186;9.778;2023-04-29T04:08:21;0.00;;;0.00;;
19551;SDS011;9921;47.186;9.778;2023-04-29T04:10:48;0.00;;;0.00;;
19551;SDS011;9921;47.186;9.778;2023-04-29T04:13:15;0.00;;;0.00;;
19551;SDS011;9921;47.186;9.778;2023-04-29T04:15:43;0.00;;;0.00;;
19551;SDS011;9921;47.186;9.778;2023-04-29T04:18:15;0.00;;;0.00;;
19551;SDS011;9921;47.186;9.778;2023-04-29T04:20:41;0.00;;;0.00;;
19551;SDS011;9921;47.186;9.778;2023-04-29T04:23:08;0.00;;;0.00;;
19551;SDS011;9921;47.186;9.778;2023-04-29T04:25:35;0.00;;;0.00;;
19551;SDS011;9921;47.186;9.778;2023-04-29T04:28:02;0.00;;;0.00;;
19551;SDS011;9921;47.186;9.778;2023-04-29T04:30:30;0.00;;;0.00;;
19551;SDS011;9921;47.186;9.778;2023-04-29T04:32:58;0.00;;;0.00;;
19551;SDS011;9921;47.186;9.778;2023-04-29T04:35:25;0.00;;;0.00;;
19551;SDS011;9921;47.186;9.778;2023-04-29T04:37:52;0.00;;;0.00;;
19551;SDS011;9921;47.186;9.778;2023-04-29T04:40:19;0.00;;;0.00;;
19551;SDS011;9921;47.186;9.778;2023-04-29T04:42:47;0.00;;;0.00;;
19551;SDS011;9921;47.186;9.778;2023-04-29T04:45:13;0.00;;;0.00;;
19551;SDS011;9921;47.186;9.778;2023-04-29T04:47:40;0.00;;;0.00;;
19551;SDS011;9921;47.186;9.778;2023-04-29T04:50:09;0.00;;;0.00;;
19551;SDS011;9921;47.186;9.778;2023-04-29T04:52:36;0.00;;;0.00;;
19551;SDS011;9921;47.186;9.778;2023-04-29T04:55:03;0.00;;;0.00;;
19551;SDS011;9921;47.186;9.778;2023-04-29T04:57:30;0.00;;;0.00;;
19551;SDS011;9921;47.186;9.778;2023-04-29T04:59:56;0.00;;;0.00;;
19551;SDS011;9921;47.186;9.778;2023-04-29T05:02:23;0.00;;;0.00;;
19551;SDS011;9921;47.186;9.778;2023-04-29T05:04:50;0.00;;;0.00;;
19551;SDS011;9921;47.186;9.778;2023-04-29T05:07:18;0.00;;;0.00;;
19551;SDS011;9921;47.186;9.778;2023-04-29T05:09:45;0.00;;;0.00;;
19551;SDS011;9921;47.186;9.778;2023-04-29T05:12:12;0.00;;;0.00;;
19551;SDS011;9921;47.186;9.778;2023-04-29T05:14:39;0.00;;;0.00;;
19551;SDS011;9921;47.186;9.778;2023-04-29T05:17:06;0.00;;;0.00;;
19551;SDS011;9921;47.186;9.778;2023-04-29T05:19:34;0.00;;;0.00;;
19551;SDS011;9921;47.186;9.778;2023-04-29T05:22:00;0.00;;;0.00;;
19551;SDS011;9921;47.186;9.778;2023-04-29T05:24:29;0.00;;;0.00;;
19551;SDS011;9921;47.186;9.778;2023-04-29T05:26:56;0.00;;;0.00;;
19551;SDS011;9921;47.186;9.778;2023-04-29T05:29:23;0.00;;;0.00;;
19551;SDS011;9921;47.186;9.778;2023-04-29T05:31:51;0.00;;;0.00;;
19551;SDS011;9921;47.186;9.778;2023-04-29T05:34:18;0.00;;;0.00;;
19551;SDS011;9921;47.186;9.778;2023-04-29T05:36:44;0.00;;;0.00;;
19551;SDS011;9921;47.186;9.778;2023-04-29T05:39:11;0.00;;;0.00;;
19551;SDS011;9921;47.186;9.778;2023-04-29T05:41:40;0.00;;;0.00;;
19551;SDS011;9921;47.186;9.778;2023-04-29T05:44:06;0.00;;;0.00;;
19551;SDS011;9921;47.186;9.778;2023-04-29T05:46:33;0.00;;;0.00;;
19551;SDS011;9921;47.186;9.778;2023-04-29T05:49:00;0.00;;;0.00;;
19551;SDS011;9921;47.186;9.778;2023-04-29T05:51:27;0.00;;;0.00;;
19551;SDS011;9921;47.186;9.778;2023-04-29T05:53:55;0.00;;;0.00;;
19551;SDS011;9921;47.186;9.778;2023-04-29T05:56:23;0.00;;;0.00;;
19551;SDS011;9921;47.186;9.778;2023-04-29T05:58:52;0.00;;;0.00;;
19551;SDS011;9921;47.186;9.778;2023-04-29T06:01:19;0.00;;;0.00;;
19551;SDS011;9921;47.186;9.778;2023-04-29T06:03:45;0.00;;;0.00;;
19551;SDS011;9921;47.186;9.778;2023-04-29T06:06:12;0.00;;;0.00;;
19551;SDS011;9921;47.186;9.778;2023-04-29T06:08:39;0.00;;;0.00;;
19551;SDS011;9921;47.186;9.778;2023-04-29T06:11:06;0.00;;;0.00;;
19551;SDS011;9921;47.186;9.778;2023-04-29T06:13:33;0.00;;;0.00;;
19551;SDS011;9921;47.186;9.778;2023-04-29T06:16:01;0.00;;;0.00;;
19551;SDS011;9921;47.186;9.778;2023-04-29T06:18:28;0.00;;;0.00;;
19551;SDS011;9921;47.186;9.778;2023-04-29T06:20:55;0.00;;;0.00;;
19551;SDS011;9921;47.186;9.778;2023-04-29T06:23:22;0.00;;;0.00;;
19551;SDS011;9921;47.186;9.778;2023-04-29T06:25:49;0.00;;;0.00;;
19551;SDS011;9921;47.186;9.778;2023-04-29T06:28:17;0.00;;;0.00;;
19551;SDS011;9921;47.186;9.778;2023-04-29T06:30:44;0.00;;;0.00;;
19551;SDS011;9921;47.186;9.778;2023-04-29T06:33:12;0.00;;;0.00;;
19551;SDS011;9921;47.186;9.778;2023-04-29T06:35:39;0.00;;;0.00;;
19551;SDS011;9921;47.186;9.778;2023-04-29T06:38:06;0.00;;;0.00;;
19551;SDS011;9921;47.186;9.778;2023-04-29T06:40:33;0.00;;;0.00;;
19551;SDS011;9921;47.186;9.778;2023-04-29T06:43:00;0.00;;;0.00;;
19551;SDS011;9921;47.186;9.778;2023-04-29T06:45:28;0.00;;;0.00;;
19551;SDS011;9921;47.186;9.778;2023-04-29T06:47:55;0.00;;;0.00;;
19551;SDS011;9921;47.186;9.778;2023-04-29T06:50:23;0.00;;;0.00;;
19551;SDS011;9921;47.186;9.778;2023-04-29T06:52:50;0.00;;;0.00;;
19551;SDS011;9921;47.186;9.778;2023-04-29T06:55:17;0.00;;;0.00;;
19551;SDS011;9921;47.186;9.778;2023-04-29T06:57:45;0.00;;;0.00;;
19551;SDS011;9921;47.186;9.778;2023-04-29T07:00:12;0.00;;;0.00;;
19551;SDS011;9921;47.186;9.778;2023-04-29T07:02:40;0.00;;;0.00;;
19551;SDS011;9921;47.186;9.778;2023-04-29T07:05:07;0.00;;;0.00;;
19551;SDS011;9921;47.186;9.778;2023-04-29T07:07:36;0.00;;;0.00;;
19551;SDS011;9921;47.186;9.778;2023-04-29T07:10:03;0.00;;;0.00;;
19551;SDS011;9921;47.186;9.778;2023-04-29T07:12:30;0.00;;;0.00;;
19551;SDS011;9921;47.186;9.778;2023-04-29T07:14:57;0.00;;;0.00;;
19551;SDS011;9921;47.186;9.778;2023-04-29T07:17:28;0.00;;;0.00;;
19551;SDS011;9921;47.186;9.778;2023-04-29T07:19:55;0.00;;;0.00;;
19551;SDS011;9921;47.186;9.778;2023-04-29T07:22:22;0.00;;;0.00;;
19551;SDS011;9921;47.186;9.778;2023-04-29T07:24:53;0.00;;;0.00;;
19551;SDS011;9921;47.186;9.778;2023-04-29T07:27:21;0.00;;;0.00;;
19551;SDS011;9921;47.186;9.778;2023-04-29T07:29:48;0.00;;;0.00;;
19551;SDS011;9921;47.186;9.778;2023-04-29T07:32:15;0.00;;;0.00;;
19551;SDS011;9921;47.186;9.778;2023-04-29T07:34:42;0.00;;;0.00;;
19551;SDS011;9921;47.186;9.778;2023-04-29T07:37:09;0.00;;;0.00;;
19551;SDS011;9921;47.186;9.778;2023-04-29T07:39:36;0.00;;;0.00;;
19551;SDS011;9921;47.186;9.778;2023-04-29T07:42:04;0.00;;;0.00;;
19551;SDS011;9921;47.186;9.778;2023-04-29T07:44:31;0.00;;;0.00;;
19551;SDS011;9921;47.186;9.778;2023-04-29T07:46:57;0.00;;;0.00;;
19551;SDS011;9921;47.186;9.778;2023-04-29T07:49:24;0.00;;;0.00;;
19551;SDS011;9921;47.186;9.778;2023-04-29T07:51:51;0.00;;;0.00;;
19551;SDS011;9921;47.186;9.778;2023-04-29T07:54:18;0.00;;;0.00;;
19551;SDS011;9921;47.186;9.778;2023-04-29T07:56:46;0.00;;;0.00;;
19551;SDS011;9921;47.186;9.778;2023-04-29T07:59:14;0.00;;;0.00;;
19551;SDS011;9921;47.186;9.778;2023-04-29T08:01:41;0.00;;;0.00;;
19551;SDS011;9921;47.186;9.778;2023-04-29T08:04:08;0.00;;;0.00;;
19551;SDS011;9921;47.186;9.778;2023-04-29T08:06:35;0.00;;;0.00;;
19551;SDS011;9921;47.186;9.778;2023-04-29T08:09:02;0.00;;;0.00;;
19551;SDS011;9921;47.186;9.778;2023-04-29T08:11:29;0.00;;;0.00;;
19551;SDS011;9921;47.186;9.778;2023-04-29T08:13:55;0.00;;;0.00;;
19551;SDS011;9921;47.186;9.778;2023-04-29T08:16:25;0.00;;;0.00;;
19551;SDS011;9921;47.186;9.778;2023-04-29T08:18:52;0.00;;;0.00;;
19551;SDS011;9921;47.186;9.778;2023-04-29T08:21:20;0.00;;;0.00;;
19551;SDS011;9921;47.186;9.778;2023-04-29T08:23:47;0.00;;;0.00;;
19551;SDS011;9921;47.186;9.778;2023-04-29T08:26:14;0.00;;;0.00;;
19551;SDS011;9921;47.186;9.778;2023-04-29T08:28:41;0.00;;;0.00;;
19551;SDS011;9921;47.186;9.778;2023-04-29T08:31:07;0.00;;;0.00;;
19551;SDS011;9921;47.186;9.778;2023-04-29T08:33:43;0.00;;;0.00;;
19551;SDS011;9921;47.186;9.778;2023-04-29T08:36:10;0.00;;;0.00;;
19551;SDS011;9921;47.186;9.778;2023-04-29T08:38:37;0.00;;;0.00;;
19551;SDS011;9921;47.186;9.778;2023-04-29T08:41:06;0.00;;;0.00;;
19551;SDS011;9921;47.186;9.778;2023-04-29T08:43:33;0.00;;;0.00;;
19551;SDS011;9921;47.186;9.778;2023-04-29T08:46:01;0.00;;;0.00;;
19551;SDS011;9921;47.186;9.778;2023-04-29T08:48:29;0.00;;;0.00;;
19551;SDS011;9921;47.186;9.778;2023-04-29T08:50:57;0.10;;;0.10;;
19551;SDS011;9921;47.186;9.778;2023-04-29T08:53:26;0.10;;;0.10;;
19551;SDS011;9921;47.186;9.778;2023-04-29T08:55:53;0.10;;;0.10;;
19551;SDS011;9921;47.186;9.778;2023-04-29T08:58:21;0.10;;;0.10;;
19551;SDS011;9921;47.186;9.778;2023-04-29T09:00:52;0.10;;;0.10;;
19551;SDS011;9921;47.186;9.778;2023-04-29T09:03:21;0.10;;;0.10;;
19551;SDS011;9921;47.186;9.778;2023-04-29T09:05:52;0.20;;;0.20;;
19551;SDS011;9921;47.186;9.778;2023-04-29T09:08:22;0.17;;;0.17;;
19551;SDS011;9921;47.186;9.778;2023-04-29T09:10:49;0.10;;;0.10;;
19551;SDS011;9921;47.186;9.778;2023-04-29T09:13:23;0.20;;;0.20;;
19551;SDS011;9921;47.186;9.778;2023-04-29T09:15:50;0.10;;;0.10;;
19551;SDS011;9921;47.186;9.778;2023-04-29T09:21:11;0.20;;;0.20;;
19551;SDS011;9921;47.186;9.778;2023-04-29T09:23:44;0.20;;;0.20;;
19551;SDS011;9921;47.186;9.778;2023-04-29T09:26:11;0.20;;;0.20;;
19551;SDS011;9921;47.186;9.778;2023-04-29T09:28:38;0.28;;;0.28;;
19551;SDS011;9921;47.186;9.778;2023-04-29T09:31:07;0.25;;;0.25;;
19551;SDS011;9921;47.186;9.778;2023-04-29T09:36:40;0.30;;;0.30;;
19551;SDS011;9921;47.186;9.778;2023-04-29T09:39:12;0.30;;;0.30;;
19551;SDS011;9921;47.186;9.778;2023-04-29T09:41:40;0.30;;;0.30;;
19551;SDS011;9921;47.186;9.778;2023-04-29T09:44:22;0.30;;;0.30;;
19551;SDS011;9921;47.186;9.778;2023-04-29T09:46:53;0.30;;;0.30;;
19551;SDS011;9921;47.186;9.778;2023-04-29T09:49:21;0.30;;;0.30;;
19551;SDS011;9921;47.186;9.778;2023-04-29T09:51:53;0.40;;;0.40;;
19551;SDS011;9921;47.186;9.778;2023-04-29T09:54:23;0.40;;;0.40;;
19551;SDS011;9921;47.186;9.778;2023-04-29T09:56:52;0.40;;;0.40;;
19551;SDS011;9921;47.186;9.778;2023-04-29T09:59:20;0.40;;;0.40;;
19551;SDS011;9921;47.186;9.778;2023-04-29T10:01:48;0.40;;;0.40;;
19551;SDS011;9921;47.186;9.778;2023-04-29T10:04:16;0.40;;;0.40;;
19551;SDS011;9921;47.186;9.778;2023-04-29T10:06:45;0.30;;;0.30;;
19551;SDS011;9921;47.186;9.778;2023-04-29T10:09:15;0.40;;;0.40;;
19551;SDS011;9921;47.186;9.778;2023-04-29T10:11:45;0.40;;;0.40;;
19551;SDS011;9921;47.186;9.778;2023-04-29T10:14:13;0.32;;;0.32;;
19551;SDS011;9921;47.186;9.778;2023-04-29T10:16:45;0.40;;;0.40;;
19551;SDS011;9921;47.186;9.778;2023-04-29T10:19:14;0.30;;;0.30;;
19551;SDS011;9921;47.186;9.778;2023-04-29T10:21:48;0.40;;;0.40;;
19551;SDS011;9921;47.186;9.778;2023-04-29T10:24:16;0.40;;;0.40;;
19551;SDS011;9921;47.186;9.778;2023-04-29T10:26:45;0.50;;;0.50;;
19551;SDS011;9921;47.186;9.778;2023-04-29T10:29:13;0.40;;;0.40;;
19551;SDS011;9921;47.186;9.778;2023-04-29T10:31:42;0.40;;;0.40;;
19551;SDS011;9921;47.186;9.778;2023-04-29T10:34:10;0.40;;;0.40;;
19551;SDS011;9921;47.186;9.778;2023-04-29T10:36:38;0.30;;;0.30;;
19551;SDS011;9921;47.186;9.778;2023-04-29T10:39:06;0.25;;;0.25;;
19551;SDS011;9921;47.186;9.778;2023-04-29T10:41:41;0.20;;;0.20;;
19551;SDS011;9921;47.186;9.778;2023-04-29T10:44:12;0.20;;;0.20;;
19551;SDS011;9921;47.186;9.778;2023-04-29T10:46:39;0.20;;;0.20;;
19551;SDS011;9921;47.186;9.778;2023-04-29T10:49:06;0.20;;;0.20;;
19551;SDS011;9921;47.186;9.778;2023-04-29T10:51:33;0.20;;;0.20;;
19551;SDS011;9921;47.186;9.778;2023-04-29T10:54:07;0.20;;;0.20;;
19551;SDS011;9921;47.186;9.778;2023-04-29T10:56:39;0.20;;;0.20;;
19551;SDS011;9921;47.186;9.778;2023-04-29T10:59:12;0.20;;;0.20;;
19551;SDS011;9921;47.186;9.778;2023-04-29T11:01:47;0.25;;;0.25;;
19551;SDS011;9921;47.186;9.778;2023-04-29T11:04:15;0.30;;;0.30;;
19551;SDS011;9921;47.186;9.778;2023-04-29T11:06:43;0.25;;;0.25;;
19551;SDS011;9921;47.186;9.778;2023-04-29T11:09:13;0.20;;;0.20;;
19551;SDS011;9921;47.186;9.778;2023-04-29T11:11:44;0.22;;;0.22;;
19551;SDS011;9921;47.186;9.778;2023-04-29T11:14:24;0.20;;;0.20;;
19551;SDS011;9921;47.186;9.778;2023-04-29T11:16:52;0.22;;;0.22;;
19551;SDS011;9921;47.186;9.778;2023-04-29T11:19:23;0.20;;;0.20;;
19551;SDS011;9921;47.186;9.778;2023-04-29T11:24:54;0.20;;;0.20;;
19551;SDS011;9921;47.186;9.778;2023-04-29T11:27:25;0.20;;;0.20;;
19551;SDS011;9921;47.186;9.778;2023-04-29T11:29:54;0.20;;;0.20;;
19551;SDS011;9921;47.186;9.778;2023-04-29T11:32:23;0.20;;;0.20;;
19551;SDS011;9921;47.186;9.778;2023-04-29T11:34:51;0.20;;;0.20;;
19551;SDS011;9921;47.186;9.778;2023-04-29T11:37:18;0.20;;;0.20;;
19551;SDS011;9921;47.186;9.778;2023-04-29T11:39:46;0.20;;;0.20;;
19551;SDS011;9921;47.186;9.778;2023-04-29T11:42:18;0.20;;;0.20;;
19551;SDS011;9921;47.186;9.778;2023-04-29T11:44:45;0.20;;;0.20;;
19551;SDS011;9921;47.186;9.778;2023-04-29T11:47:13;0.20;;;0.20;;
19551;SDS011;9921;47.186;9.778;2023-04-29T11:49:40;0.20;;;0.20;;
19551;SDS011;9921;47.186;9.778;2023-04-29T11:52:07;0.20;;;0.20;;
19551;SDS011;9921;47.186;9.778;2023-04-29T11:54:35;0.20;;;0.20;;
19551;SDS011;9921;47.186;9.778;2023-04-29T11:57:02;0.20;;;0.20;;
19551;SDS011;9921;47.186;9.778;2023-04-29T11:59:29;0.30;;;0.30;;
19551;SDS011;9921;47.186;9.778;2023-04-29T12:01:57;0.30;;;0.30;;
19551;SDS011;9921;47.186;9.778;2023-04-29T12:04:26;0.30;;;0.30;;
19551;SDS011;9921;47.186;9.778;2023-04-29T12:06:55;0.30;;;0.30;;
19551;SDS011;9921;47.186;9.778;2023-04-29T12:09:22;0.30;;;0.30;;
19551;SDS011;9921;47.186;9.778;2023-04-29T12:11:49;0.30;;;0.30;;
19551;SDS011;9921;47.186;9.778;2023-04-29T12:14:16;0.20;;;0.20;;
19551;SDS011;9921;47.186;9.778;2023-04-29T12:16:44;0.30;;;0.30;;
19551;SDS011;9921;47.186;9.778;2023-04-29T12:19:11;0.30;;;0.30;;
19551;SDS011;9921;47.186;9.778;2023-04-29T12:21:48;0.30;;;0.30;;
19551;SDS011;9921;47.186;9.778;2023-04-29T12:24:16;0.30;;;0.30;;
19551;SDS011;9921;47.186;9.778;2023-04-29T12:26:43;0.30;;;0.30;;
19551;SDS011;9921;47.186;9.778;2023-04-29T12:29:12;0.30;;;0.30;;
19551;SDS011;9921;47.186;9.778;2023-04-29T12:31:39;0.30;;;0.30;;
19551;SDS011;9921;47.186;9.778;2023-04-29T12:34:07;0.30;;;0.30;;
19551;SDS011;9921;47.186;9.778;2023-04-29T12:36:34;0.30;;;0.30;;
19551;SDS011;9921;47.186;9.778;2023-04-29T12:39:04;0.30;;;0.30;;
19551;SDS011;9921;47.186;9.778;2023-04-29T12:41:37;0.30;;;0.30;;
19551;SDS011;9921;47.186;9.778;2023-04-29T12:44:05;0.20;;;0.20;;
19551;SDS011;9921;47.186;9.778;2023-04-29T12:46:34;0.20;;;0.20;;
19551;SDS011;9921;47.186;9.778;2023-04-29T12:49:02;0.22;;;0.22;;
19551;SDS011;9921;47.186;9.778;2023-04-29T12:51:29;0.20;;;0.20;;
19551;SDS011;9921;47.186;9.778;2023-04-29T12:53:57;0.20;;;0.20;;
19551;SDS011;9921;47.186;9.778;2023-04-29T12:56:26;0.20;;;0.20;;
19551;SDS011;9921;47.186;9.778;2023-04-29T12:58:52;0.10;;;0.10;;
19551;SDS011;9921;47.186;9.778;2023-04-29T13:01:19;0.20;;;0.20;;
19551;SDS011;9921;47.186;9.778;2023-04-29T13:03:46;0.20;;;0.20;;
19551;SDS011;9921;47.186;9.778;2023-04-29T13:06:15;0.15;;;0.15;;
19551;SDS011;9921;47.186;9.778;2023-04-29T13:08:42;0.10;;;0.10;;
19551;SDS011;9921;47.186;9.778;2023-04-29T13:11:09;0.20;;;0.20;;
19551;SDS011;9921;47.186;9.778;2023-04-29T13:13:38;0.20;;;0.20;;
19551;SDS011;9921;47.186;9.778;2023-04-29T13:16:06;0.10;;;0.10;;
19551;SDS011;9921;47.186;9.778;2023-04-29T13:18:33;0.20;;;0.20;;
19551;SDS011;9921;47.186;9.778;2023-04-29T13:21:00;0.10;;;0.10;;
19551;SDS011;9921;47.186;9.778;2023-04-29T13:23:27;0.10;;;0.10;;
19551;SDS011;9921;47.186;9.778;2023-04-29T13:25:54;0.10;;;0.10;;
19551;SDS011;9921;47.186;9.778;2023-04-29T13:28:21;0.10;;;0.10;;
19551;SDS011;9921;47.186;9.778;2023-04-29T13:30:49;0.10;;;0.10;;
19551;SDS011;9921;47.186;9.778;2023-04-29T13:33:17;0.10;;;0.10;;
19551;SDS011;9921;47.186;9.778;2023-04-29T13:35:44;0.10;;;0.10;;
19551;SDS011;9921;47.186;9.778;2023-04-29T13:38:11;0.20;;;0.20;;
19551;SDS011;9921;47.186;9.778;2023-04-29T13:40:38;0.00;;;0.00;;
19551;SDS011;9921;47.186;9.778;2023-04-29T13:43:05;0.10;;;0.10;;
19551;SDS011;9921;47.186;9.778;2023-04-29T13:45:32;0.10;;;0.10;;
19551;SDS011;9921;47.186;9.778;2023-04-29T13:48:01;0.20;;;0.20;;
19551;SDS011;9921;47.186;9.778;2023-04-29T13:50:27;0.10;;;0.10;;
19551;SDS011;9921;47.186;9.778;2023-04-29T13:52:54;0.10;;;0.10;;
19551;SDS011;9921;47.186;9.778;2023-04-29T13:55:21;0.10;;;0.10;;
19551;SDS011;9921;47.186;9.778;2023-04-29T13:57:48;0.20;;;0.20;;
19551;SDS011;9921;47.186;9.778;2023-04-29T14:00:16;0.10;;;0.10;;
19551;SDS011;9921;47.186;9.778;2023-04-29T14:02:43;0.10;;;0.10;;
19551;SDS011;9921;47.186;9.778;2023-04-29T14:05:11;0.10;;;0.10;;
19551;SDS011;9921;47.186;9.778;2023-04-29T14:07:38;0.10;;;0.10;;
19551;SDS011;9921;47.186;9.778;2023-04-29T14:10:05;0.10;;;0.10;;
19551;SDS011;9921;47.186;9.778;2023-04-29T14:12:32;0.10;;;0.10;;
19551;SDS011;9921;47.186;9.778;2023-04-29T14:14:59;0.10;;;0.10;;
19551;SDS011;9921;47.186;9.778;2023-04-29T14:17:26;0.10;;;0.10;;
19551;SDS011;9921;47.186;9.778;2023-04-29T14:19:53;0.10;;;0.10;;
19551;SDS011;9921;47.186;9.778;2023-04-29T14:22:21;0.10;;;0.10;;
19551;SDS011;9921;47.186;9.778;2023-04-29T14:24:48;0.10;;;0.10;;
19551;SDS011;9921;47.186;9.778;2023-04-29T14:27:15;0.10;;;0.10;;
19551;SDS011;9921;47.186;9.778;2023-04-29T14:29:42;0.10;;;0.10;;
19551;SDS011;9921;47.186;9.778;2023-04-29T14:32:09;0.10;;;0.10;;
19551;SDS011;9921;47.186;9.778;2023-04-29T14:34:35;0.10;;;0.10;;
19551;SDS011;9921;47.186;9.778;2023-04-29T14:37:02;0.10;;;0.10;;
19551;SDS011;9921;47.186;9.778;2023-04-29T14:39:31;0.10;;;0.10;;
19551;SDS011;9921;47.186;9.778;2023-04-29T14:41:57;0.13;;;0.13;;
19551;SDS011;9921;47.186;9.778;2023-04-29T14:44:24;0.00;;;0.00;;
19551;SDS011;9921;47.186;9.778;2023-04-29T14:46:51;0.00;;;0.00;;
19551;SDS011;9921;47.186;9.778;2023-04-29T14:49:18;0.10;;;0.10;;
19551;SDS011;9921;47.186;9.778;2023-04-29T14:51:45;0.10;;;0.10;;
19551;SDS011;9921;47.186;9.778;2023-04-29T14:54:11;0.10;;;0.10;;
19551;SDS011;9921;47.186;9.778;2023-04-29T14:56:40;0.10;;;0.10;;
19551;SDS011;9921;47.186;9.778;2023-04-29T14:59:06;0.10;;;0.10;;
19551;SDS011;9921;47.186;9.778;2023-04-29T15:01:33;0.10;;;0.10;;
19551;SDS011;9921;47.186;9.778;2023-04-29T15:04:00;0.10;;;0.10;;
19551;SDS011;9921;47.186;9.778;2023-04-29T15:06:28;0.00;;;0.00;;
19551;SDS011;9921;47.186;9.778;2023-04-29T15:08:56;0.05;;;0.05;;
19551;SDS011;9921;47.186;9.778;2023-04-29T15:11:23;0.10;;;0.10;;
19551;SDS011;9921;47.186;9.778;2023-04-29T15:13:51;0.03;;;0.03;;
19551;SDS011;9921;47.186;9.778;2023-04-29T15:16:18;0.00;;;0.00;;